Nearby METAR Reports

 

EGMC - Southend-On-Sea, United Kingdom
Distance from station: NE 10km
Updated: 25/06/2018 06:50
Clear
Clear
 Wind from calm
Wind: Calm
Temperature: 17°C
Dew Point: 12°C
Humidity: 73%
Barometer: 1025 hPa
Summary: Clear
Visibility: greater than 7 miles , 10 km
2018/06/25 05:50 EGMC 250550Z 00000KT CAVOK 17/12 Q1025
EGLC - London City Airp, United Kingdom
Distance from station: W 37km
Updated: 25/06/2018 06:50
Clear
Clear
 Wind from WSW
Wind: WSW 7 mph , 11 km/h
Temperature: 18°C
Dew Point: 10°C
Humidity: 60%
Barometer: 1026 hPa
Clouds: Clear
Visibility: 6 miles , 10 km
2018/06/25 05:50 EGLC 250550Z AUTO 24006KT 9999 NCD 18/10 Q1026
EGKB - Biggin Hill, United Kingdom
Distance from station: WSW 45km
Updated: 25/06/2018 06:50
Clear
Clear
 Wind from W
Wind: W 5 mph , 7 km/h
Temperature: 16°C
Dew Point: 9°C
Humidity: 63%
Barometer: 1026 hPa
Summary: Clear
Visibility: greater than 7 miles , 10 km
2018/06/25 05:50 EGKB 250550Z 27004KT 240V320 CAVOK 16/09 Q1026
 
EGSS - Stansted Airport, United Kingdom
Distance from station: NNW 48km
Updated: 25/06/2018 06:50
Clear
Clear
 Wind from varies
Wind: varies 3 mph , 6 km/h
Temperature: 15°C
Dew Point: 12°C
Humidity: 82%
Barometer: 1026 hPa
Clouds: Clear
Visibility: 6 miles , 10 km
2018/06/25 05:50 EGSS 250550Z AUTO VRB03KT 9999 NCD 15/12 Q1026
EGKK - London/Gatwick A, United Kingdom
Distance from station: SW 67km
Updated: 25/06/2018 06:50
Clear
Clear
 Wind from varies
Wind: varies 1 mph , 2 km/h
Temperature: 15°C
Dew Point: 11°C
Humidity: 77%
Barometer: 1026 hPa
Summary: Clear
Visibility: greater than 7 miles , 10 km
2018/06/25 05:50 EGKK 250550Z VRB01KT CAVOK 15/11 Q1026
EGMD - Lydd Airport, United Kingdom
Distance from station: SSE 67km
Updated: 25/06/2018 06:50
Clear
Clear
 Wind from NNW
Wind: NNW 7 mph , 11 km/h
Temperature: 15°C
Dew Point: 13°C
Humidity: 88%
Barometer: 1026 hPa
Clouds: Clear
Visibility: 6 miles , 10 km
2018/06/25 05:50 EGMD 250550Z AUTO 33006KT 9999 NCD 15/13 Q1026
 
EGWU - Northolt Raf, United Kingdom
Distance from station: W 69km
Updated: 25/06/2018 06:50
Clear
Clear
 Wind from W
Wind: W 3 mph , 6 km/h
Temperature: 15°C
Dew Point: 9°C
Humidity: 68%
Barometer: 1026 hPa
Summary: Clear
Visibility: greater than 7 miles , 10 km
2018/06/25 05:50 EGWU 250550Z 27003KT CAVOK 15/09 Q1026 BLU NOSIG
EGLL - London/Heathrow, United Kingdom
Distance from station: W 72km
Updated: 25/06/2018 06:50
Clear
Clear
 Wind from WSW
Wind: WSW 5 mph , 7 km/h
Temperature: 16°C
Dew Point: 10°C
Humidity: 68%
Barometer: 1026 hPa
Clouds: Clear
Visibility: 6 miles , 10 km
2018/06/25 05:50 EGLL 250550Z AUTO 24004KT 9999 NCD 16/10 Q1026 NOSIG
EGUW - Wattisham Raf, United Kingdom
Distance from station: NNE 72km
Updated: 25/06/2018 06:50
Clear
Clear
 Wind from WSW
Wind: WSW 7 mph , 11 km/h
Temperature: 15°C
Dew Point: 10°C
Humidity: 72%
Barometer: 1025 hPa
Summary: Clear
Visibility: greater than 7 miles , 10 km
2018/06/25 05:50 EGUW 250550Z 25006KT CAVOK 15/10 Q1025 BLU NOSIG
 
EGGW - Luton Airport, United Kingdom
Distance from station: WNW 76km
Updated: 25/06/2018 06:50
Clear
Clear
 Wind from varies
Wind: varies 3 mph , 6 km/h
Temperature: 17°C
Dew Point: 11°C
Humidity: 68%
Barometer: 1026 hPa
Clouds: Clear
Visibility: 6 miles , 10 km
2018/06/25 05:50 EGGW 250550Z AUTO VRB03KT 9999 NCD 17/11 Q1026
EGSC - Cambridge, United Kingdom
Distance from station: NNW 81km
Updated: 24/06/2018 17:50
NOT Current
Few Clouds
Few Clouds
 Wind from varies
Wind: varies 3 mph , 6 km/h
Temperature: 25°C
Dew Point: 9°C
Humidity: 36%
Barometer: 1024 hPa
Clouds: Few Clouds
Visibility: 6 miles , 10 km
Cloud details: Few Clouds 1463 m
2018/06/24 16:50 EGSC 241650Z VRB03KT 9999 FEW048 25/09 Q1024